Last 7 Days

Scotts Valley-South (Bella Vista)

Hourly Data | America/Los_Angeles
as of 9/1/26 2:03 PM PDT
Date & Time Temp (°F) RH (%) Dew Pt (°F) Wet Bulb (°F) Wind Dir (°) Wind Spd (mph) Wind Gust (mph) Solar Rad (W/m2) ETo Hr (In) BatVolt (V) CellRSSI (dB) Latest Rain (In) Daily Rain (In) Daily Min Temp (°F) Daily Max Temp (°F) Daily ETo (in)
9/1/26 - 1400 68.5 46 46.7 56.0 SW | 220 3.1 12.1 579 0.016 13.6 -63 0.00 0.00 49.2 69.6 0.048
9/1/26 - 1300 65.8 54 48.8 56.2 SSW | 192 3.0 9.9 490 0.013 13.6 -59 0.00 0.00 49.2 67.1 0.033
9/1/26 - 1200 62.2 61 48.7 55.0 ESE | 107 1.4 4.7 209 0.006 13.7 -63 0.00 0.00 49.2 63.3 0.020
9/1/26 - 1100 61.7 62 48.7 54.9 E | 79 1.1 4.3 144 0.004 13.7 -63 0.00 0.00 49.2 62.1 0.014
9/1/26 - 1000 59.7 66 48.3 53.9 NNE | 26 2.0 6.2 216 0.005 13.7 -59 0.00 0.00 49.2 61.0 0.010
9/1/26 - 0900 57.0 72 48.1 52.7 NW | 308 3.0 6.8 94 0.003 13.8 -63 0.00 0.00 49.2 58.0 0.004
9/1/26 - 0800 55.9 74 47.9 52.2 WNW | 292 2.6 6.4 28 0.001 13.2 -63 0.00 0.00 49.2 56.4 0.001
9/1/26 - 0700 55.3 79 48.8 52.5 NW | 304 2.4 5.7 0 0.000 12.6 -63 0.00 0.00 49.2 55.6 0.000
9/1/26 - 0600 55.4 79 48.9 52.5 WNW | 288 1.8 5.6 0 0.000 12.7 -63 0.00 0.00 49.2 55.6 0.000
9/1/26 - 0500 54.6 82 49.4 52.5 NW | 323 0.9 2.8 0 0.000 12.8 -65 0.00 0.00 49.2 55.0 0.000
9/1/26 - 0400 53.2 85 48.9 51.6 WNW | 302 1.6 6.2 0 0.000 12.7 -65 0.00 0.00 49.2 54.6 0.000
9/1/26 - 0300 49.9 88 46.5 48.8 SW | 227 1.5 7.4 0 0.000 12.7 -65 0.00 0.00 49.2 53.6 0.000
9/1/26 - 0200 52.6 84 47.9 50.7 WNW | 300 1.6 5.5 0 0.000 12.8 -65 0.00 0.00 50.3 53.6 0.000
9/1/26 - 0100 53.6 82 48.2 51.4 WNW | 301 3.4 8.1 0 0.000 12.8 -63 0.00 0.00 46.0 83.4 0.176
9/1/26 - 0000 54.4 79 48.0 51.6 WNW | 292 3.7 8.9 0 0.000 12.8 -63 0.00 0.00 46.0 83.4 0.176
8/31/26 - 2300 55.4 75 47.6 51.8 WNW | 284 4.8 12.1 0 0.000 12.8 -63 0.00 0.00 46.0 83.4 0.176
8/31/26 - 2200 58.7 65 47.2 52.9 NW | 310 7.0 14.9 0 0.001 12.8 -65 0.00 0.00 46.0 83.4 0.176
8/31/26 - 2100 62.2 59 47.6 54.4 NW | 314 4.6 13.3 0 0.001 12.8 -63 0.00 0.00 46.0 83.4 0.175
8/31/26 - 2000 67.3 53 49.6 57.2 NW | 312 4.9 11.1 23 0.001 12.9 -63 0.00 0.00 46.0 83.4 0.174
8/31/26 - 1900 73.7 45 51.0 59.8 WSW | 245 4.6 10.3 158 0.005 13.5 -63 0.00 0.00 46.0 83.4 0.173
8/31/26 - 1800 76.6 41 51.4 60.7 WSW | 242 5.4 12.8 328 0.011 13.5 -63 0.00 0.00 46.0 83.4 0.167
8/31/26 - 1700 78.5 39 51.5 61.1 SW | 216 6.2 14.0 488 0.016 13.4 -61 0.00 0.00 46.0 83.4 0.157
8/31/26 - 1600 79.3 36 50.2 60.6 SW | 221 6.9 16.0 626 0.020 13.5 -63 0.00 0.00 46.0 83.4 0.141
8/31/26 - 1500 79.6 32 47.4 59.2 SSW | 212 8.0 15.0 725 0.024 13.4 -61 0.00 0.00 46.0 83.4 0.120
8/31/26 - 1400 80.2 30 46.4 58.9 SW | 214 7.3 13.7 772 0.025 13.4 -61 0.00 0.00 46.0 83.4 0.097
8/31/26 - 1300 82.6 29 47.5 59.9 SE | 146 2.9 10.0 751 0.022 13.4 -61 0.00 0.00 46.0 83.4 0.072
8/31/26 - 1200 79.4 32 46.8 58.9 E | 86 1.7 4.9 689 0.019 13.4 -63 0.00 0.00 46.0 81.1 0.049
8/31/26 - 1100 75.8 40 49.5 59.4 ENE | 74 1.4 5.2 578 0.015 13.5 -63 0.00 0.00 46.0 77.4 0.030
8/31/26 - 1000 70.9 48 50.4 58.6 NE | 40 1.0 4.2 430 0.010 13.6 -63 0.00 0.00 46.0 73.3 0.015
8/31/26 - 0900 60.3 57 44.9 52.2 N | 350 0.2 1.7 203 0.004 13.7 -61 0.00 0.00 46.0 67.6 0.004
8/31/26 - 0800 49.4 69 39.6 44.9 S | 182 0.7 2.2 18 0.001 12.9 -63 0.00 0.00 46.0 54.2 0.001
8/31/26 - 0700 47.2 70 38.0 43.1 WNW | 303 0.2 3.2 2 0.000 12.7 -63 0.00 0.00 46.0 54.2 0.000
8/31/26 - 0600 49.0 67 38.6 44.3 SSW | 207 1.0 4.3 0 0.000 12.6 -63 0.00 0.00 47.1 54.2 0.000
8/31/26 - 0500 50.7 63 38.5 45.0 S | 177 0.7 3.4 0 0.000 12.7 -63 0.00 0.00 48.2 54.2 0.000
8/31/26 - 0400 50.9 63 38.8 45.3 S | 178 0.6 6.4 0 0.000 12.7 -63 0.00 0.00 50.1 54.2 0.000
8/31/26 - 0300 52.2 61 39.2 46.1 S | 182 0.4 2.9 0 0.000 12.7 -65 0.00 0.00 50.6 54.2 0.000
8/31/26 - 0200 52.5 63 40.2 46.7 N | 0 0.0 0.0 0 0.000 12.8 -63 0.00 0.00 51.9 54.2 0.000
8/31/26 - 0100 55.6 58 41.0 48.4 S | 177 0.3 1.8 0 0.000 12.8 -63 0.00 0.00 46.0 91.3 0.177
8/31/26 - 0000 56.7 59 42.4 49.6 S | 190 0.6 2.4 0 0.000 12.8 -63 0.00 0.00 46.0 91.3 0.177
8/30/26 - 2300 58.4 59 44.1 51.1 S | 184 0.3 3.4 0 0.000 12.8 -57 0.00 0.00 46.0 91.3 0.177
8/30/26 - 2200 62.1 57 46.7 53.8 S | 181 0.3 2.4 0 0.000 12.8 -63 0.00 0.00 46.0 91.3 0.177
8/30/26 - 2100 68.0 48 47.2 56.1 SW | 230 0.7 3.5 0 0.000 12.9 -63 0.00 0.00 46.0 91.3 0.177
8/30/26 - 2000 76.8 34 46.3 58.0 W | 264 3.0 9.1 22 0.000 12.9 -63 0.00 0.00 46.0 91.3 0.177
8/30/26 - 1900 82.8 29 47.7 60.1 W | 276 4.2 11.2 166 0.006 13.4 -63 0.00 0.00 46.0 91.3 0.176
8/30/26 - 1800 86.0 27 48.1 60.8 SW | 231 5.4 13.4 336 0.013 13.4 -65 0.00 0.00 46.0 91.3 0.170
8/30/26 - 1700 90.0 19 41.8 59.0 SSE | 148 3.1 13.8 503 0.016 13.3 -63 0.00 0.00 46.0 91.3 0.157
8/30/26 - 1600 89.5 15 36.3 57.1 ENE | 69 2.3 6.1 645 0.020 13.4 -63 0.00 0.00 46.0 90.5 0.141
8/30/26 - 1500 88.7 15 34.4 56.4 NNE | 16 2.5 6.1 743 0.023 13.4 -61 0.00 0.00 46.0 90.2 0.121
8/30/26 - 1400 86.5 17 36.7 56.6 ESE | 122 2.4 6.7 789 0.024 13.4 -63 0.00 0.00 46.0 88.4 0.098
8/30/26 - 1300 83.6 22 41.1 57.4 SE | 128 2.6 8.4 774 0.023 13.4 -51 0.00 0.00 46.0 85.5 0.074
8/30/26 - 1200 80.7 28 44.4 58.1 SE | 128 1.9 7.2 708 0.020 13.4 -63 0.00 0.00 46.0 83.1 0.051
8/30/26 - 1100 76.4 36 47.4 58.5 ENE | 61 1.4 4.3 595 0.016 13.6 -61 0.00 0.00 46.0 78.5 0.031
8/30/26 - 1000 69.7 47 48.3 57.2 ENE | 62 1.0 3.2 444 0.011 13.6 -59 0.00 0.00 46.0 74.7 0.015
8/30/26 - 0900 58.1 64 46.0 51.9 N | 2 0.6 2.5 227 0.004 13.7 -63 0.00 0.00 46.0 65.5 0.005
8/30/26 - 0800 48.3 82 43.0 46.0 NNW | 330 0.4 2.4 18 0.000 12.9 -59 0.00 0.00 46.0 51.0 0.000
8/30/26 - 0700 47.5 81 41.8 45.1 S | 175 1.0 3.2 2 0.000 12.7 -63 0.00 0.00 46.0 50.5 0.000
8/30/26 - 0600 47.2 81 41.5 44.8 SSE | 165 0.4 1.9 0 0.000 12.6 -63 0.00 0.00 46.0 50.5 0.000
8/30/26 - 0500 46.9 80 41.2 44.5 SSW | 197 0.2 2.1 0 0.000 12.7 -63 0.00 0.00 46.4 50.5 0.000
8/30/26 - 0400 49.5 75 41.9 46.1 S | 176 0.7 3.2 0 0.000 12.7 -63 0.00 0.00 47.7 50.5 0.000
8/30/26 - 0300 49.8 74 41.9 46.2 S | 170 0.7 2.4 0 0.000 12.7 -63 0.00 0.00 49.3 50.3 0.000
8/30/26 - 0200 49.9 73 41.6 46.1 S | 179 0.3 2.1 0 0.000 12.8 -65 0.00 0.00 49.6 50.3 0.000
8/30/26 - 0100 51.7 69 41.8 47.1 SW | 231 0.3 2.6 0 0.000 12.8 -63 0.00 0.00 41.6 85.8 0.186
8/30/26 - 0000 54.6 64 42.5 48.7 S | 186 0.9 3.0 0 0.000 12.8 -63 0.00 0.00 41.6 85.8 0.186
8/29/26 - 2300 57.6 63 45.1 51.3 S | 177 0.7 3.0 0 0.000 12.8 -63 0.00 0.00 41.6 85.8 0.186
8/29/26 - 2200 63.3 51 44.8 53.3 NW | 318 1.3 7.7 0 0.000 12.8 -63 0.00 0.00 41.6 85.8 0.186
8/29/26 - 2100 66.2 44 43.9 53.8 WNW | 283 4.3 11.1 0 0.001 12.9 -61 0.00 0.00 41.6 85.8 0.186
8/29/26 - 2000 70.0 40 44.3 55.3 W | 277 5.2 11.5 25 0.002 12.9 -65 0.00 0.00 41.6 85.8 0.184
8/29/26 - 1900 75.5 33 44.6 56.9 WNW | 283 6.1 14.0 174 0.007 13.5 -63 0.00 0.00 41.6 85.8 0.182
8/29/26 - 1800 78.6 30 44.7 57.8 WNW | 282 6.6 14.0 347 0.013 13.4 -65 0.00 0.00 41.6 85.8 0.175
8/29/26 - 1700 81.1 28 44.4 58.2 W | 276 6.7 13.6 509 0.018 13.4 -61 0.00 0.00 41.6 85.8 0.162
8/29/26 - 1600 82.4 27 44.8 58.7 NW | 308 7.2 15.7 640 0.022 13.4 -65 0.00 0.00 41.6 85.8 0.144
8/29/26 - 1500 84.6 26 46.3 59.8 W | 271 5.3 13.8 734 0.024 13.4 -65 0.00 0.00 41.6 85.8 0.122
8/29/26 - 1400 84.0 26 45.9 59.5 SSE | 162 3.1 10.0 780 0.024 13.5 -63 0.00 0.00 41.6 84.8 0.098
8/29/26 - 1300 81.4 30 46.8 59.4 E | 83 2.2 7.4 770 0.022 13.4 -61 0.00 0.00 41.6 82.8 0.074
8/29/26 - 1200 77.7 33 45.9 58.1 E | 83 1.5 5.5 713 0.019 13.5 -61 0.00 0.00 41.6 80.2 0.052
8/29/26 - 1100 74.2 36 45.2 56.9 E | 89 1.8 5.1 603 0.016 13.5 -61 0.00 0.00 41.6 75.1 0.032
8/29/26 - 1000 69.9 40 44.0 55.1 ESE | 111 0.8 3.6 451 0.011 13.6 -59 0.00 0.00 41.6 73.7 0.016
8/29/26 - 0900 57.3 53 40.2 48.7 N | 352 0.7 2.7 250 0.005 13.8 -61 0.00 0.00 41.6 64.1 0.006
8/29/26 - 0800 45.6 65 34.6 40.9 S | 183 1.2 3.3 16 0.001 12.8 -61 0.00 0.00 41.6 49.5 0.001
8/29/26 - 0700 42.9 69 33.2 38.8 SW | 216 0.2 2.5 2 0.000 12.6 -63 0.00 0.00 41.6 49.3 0.001
8/29/26 - 0600 45.3 59 31.8 39.6 SSW | 198 1.7 4.3 0 0.000 12.6 -61 0.00 0.00 42.6 49.3 0.001
8/29/26 - 0500 43.8 62 31.5 38.7 S | 179 0.7 3.5 0 0.000 12.7 -63 0.00 0.00 42.6 49.3 0.000
8/29/26 - 0400 47.0 54 31.4 40.4 S | 183 0.6 2.7 0 0.000 12.7 -63 0.00 0.00 45.1 49.3 0.000
8/29/26 - 0300 47.4 50 29.9 40.0 S | 187 1.2 3.8 0 0.000 12.7 -63 0.00 0.00 46.9 49.3 0.000
8/29/26 - 0200 48.6 49 30.3 40.8 S | 170 0.8 2.9 0 0.000 12.7 -61 0.00 0.00 47.2 49.3 0.000
8/29/26 - 0100 49.8 46 29.7 41.2 SSW | 204 0.7 3.8 0 0.000 12.8 -63 0.00 0.00 48.8 84.0 0.141
8/29/26 - 0000 51.3 45 31.0 42.4 SSW | 200 0.7 4.2 0 0.000 12.8 -61 0.00 0.00 50.6 84.0 0.141
8/28/26 - 2300 53.1 43 31.0 43.2 S | 181 1.3 4.0 0 0.000 12.8 -61 0.00 0.00 52.1 84.0 0.141
8/28/26 - 2200 54.5 47 34.5 45.2 SSW | 210 0.8 2.8 0 0.000 12.8 -63 0.00 0.00 52.9 84.0 0.140
8/28/26 - 2100 61.6 38 35.4 48.5 S | 187 0.4 2.4 0 0.000 12.9 -61 0.00 0.00 53.9 84.0 0.140
8/28/26 - 2000 72.1 22 31.2 50.8 WSW | 253 2.1 6.2 31 0.000 12.9 -63 0.00 0.00 53.9 84.0 0.140
8/28/26 - 1900 77.3 23 36.5 54.3 W | 275 3.8 12.1 235 0.007 13.5 -63 0.00 0.00 53.9 84.0 0.140
8/28/26 - 1800 77.4 30 43.3 56.9 WNW | 287 4.1 10.7 181 0.008 13.5 -61 0.00 0.00 53.9 84.0 0.133
8/28/26 - 1700 79.7 22 36.8 55.0 WNW | 288 3.8 8.9 330 0.012 13.5 -61 0.00 0.00 53.9 84.0 0.124
8/28/26 - 1600 82.1 17 32.4 54.2 W | 273 3.6 10.2 431 0.015 13.5 -61 0.00 0.00 53.9 84.0 0.112
8/28/26 - 1500 81.8 16 31.4 53.8 WNW | 294 4.5 11.6 625 0.021 13.5 -63 0.00 0.00 53.9 84.0 0.097
8/28/26 - 1400 80.0 20 34.8 54.4 SSW | 201 4.8 10.2 473 0.017 13.5 -63 0.00 0.00 53.9 83.7 0.076
8/28/26 - 1300 76.4 24 37.1 54.2 SSW | 206 4.8 9.9 328 0.013 13.5 -61 0.00 0.00 53.9 83.7 0.058
8/28/26 - 1200 80.6 19 33.3 54.2 SSW | 197 3.6 9.8 492 0.017 13.4 -63 0.00 0.00 53.9 83.7 0.045
8/28/26 - 1100 76.3 31 43.3 56.6 NE | 53 2.2 7.2 624 0.017 13.5 -63 0.00 0.00 53.9 78.6 0.028
8/28/26 - 1000 65.8 47 44.8 54.2 ENE | 58 1.0 2.9 284 0.007 13.6 -63 0.00 0.00 53.9 71.6 0.011
8/28/26 - 0900 60.9 45 39.4 50.0 SSW | 204 0.9 3.5 114 0.003 13.8 -61 0.00 0.00 53.9 63.2 0.004
8/28/26 - 0800 56.3 48 36.8 46.9 S | 186 0.5 2.3 38 0.001 13.4 -63 0.00 0.00 53.9 61.8 0.001
8/28/26 - 0700 54.7 50 36.4 46.0 S | 190 0.7 3.0 2 0.000 12.7 -63 0.00 0.00 53.9 61.8 0.000
8/28/26 - 0600 54.6 51 36.7 46.1 SSW | 200 0.3 2.5 0 0.000 12.7 -51 0.00 0.00 54.3 61.8 0.000
8/28/26 - 0500 56.0 49 37.0 46.9 NW | 305 0.3 2.6 0 0.000 12.7 -63 0.00 0.00 54.4 61.8 0.000
8/28/26 - 0400 57.8 38 32.5 45.9 S | 177 1.7 4.9 0 0.000 12.7 -59 0.00 0.00 56.3 61.8 0.000
8/28/26 - 0300 56.9 46 36.5 47.0 S | 186 0.8 3.1 0 0.000 12.8 -63 0.00 0.00 56.3 61.8 0.000
8/28/26 - 0200 59.3 49 39.9 49.5 S | 177 0.2 2.5 0 0.000 12.7 -65 0.00 0.00 57.4 61.8 0.000
8/28/26 - 0100 64.9 34 35.1 49.8 WSW | 251 1.2 5.8 0 0.000 12.8 -65 0.00 0.00 49.9 93.6 0.195
8/28/26 - 0000 66.8 31 34.8 50.3 NNW | 330 1.6 6.4 0 0.000 12.9 -63 0.00 0.00 49.9 93.6 0.195
8/27/26 - 2300 71.4 20 27.7 49.6 WNW | 301 3.3 9.9 0 0.002 12.8 -63 0.00 0.00 49.9 93.6 0.195
8/27/26 - 2200 71.9 23 32.3 51.2 WNW | 292 3.0 7.8 0 0.001 12.8 -63 0.00 0.00 49.9 93.6 0.193
8/27/26 - 2100 75.0 30 41.6 55.5 NW | 309 2.9 8.8 0 0.001 12.9 -61 0.00 0.00 49.9 93.6 0.192
8/27/26 - 2000 80.5 27 43.4 57.6 WNW | 290 3.9 8.3 36 0.002 12.9 -61 0.00 0.00 49.9 93.6 0.190
8/27/26 - 1900 85.4 26 46.4 60.0 WNW | 296 5.0 12.1 193 0.008 13.4 -51 0.00 0.00 49.9 93.6 0.188
8/27/26 - 1800 90.1 20 44.0 59.9 W | 261 4.0 10.9 339 0.012 13.3 -65 0.00 0.00 49.9 93.6 0.181
8/27/26 - 1700 91.8 18 41.6 59.2 SW | 232 5.0 10.9 519 0.019 13.3 -65 0.00 0.00 49.9 93.6 0.168
8/27/26 - 1600 92.6 19 44.1 60.3 SW | 228 4.2 9.8 648 0.022 13.3 -63 0.00 0.00 49.9 93.6 0.149
8/27/26 - 1500 92.3 17 41.4 59.3 W | 265 3.4 10.8 743 0.024 13.4 -65 0.00 0.00 49.9 93.6 0.127
8/27/26 - 1400 91.4 19 42.3 59.6 NW | 304 3.3 9.6 788 0.026 13.4 -63 0.00 0.00 49.9 92.8 0.102
8/27/26 - 1300 89.3 26 50.0 62.3 ENE | 64 2.0 6.3 776 0.024 13.4 -91 0.00 0.00 49.9 91.9 0.077
8/27/26 - 1200 85.9 31 51.3 62.4 ENE | 75 1.6 4.5 661 0.020 13.4 -63 0.00 0.00 49.9 87.4 0.053
8/27/26 - 1100 80.9 38 52.5 62.1 ESE | 119 1.5 4.5 593 0.017 13.4 -61 0.00 0.00 49.9 83.7 0.034
8/27/26 - 1000 75.2 47 53.5 61.6 ENE | 59 1.3 3.5 444 0.011 13.5 -63 0.00 0.00 49.9 78.1 0.017
8/27/26 - 0900 65.0 61 50.9 57.1 E | 85 1.0 3.1 256 0.005 13.6 -63 0.00 0.00 49.9 70.9 0.006
8/27/26 - 0800 52.1 85 47.7 50.4 SSW | 202 0.4 2.7 17 0.000 12.9 -61 0.00 0.00 49.9 56.9 0.000
8/27/26 - 0700 51.1 84 46.3 49.2 SW | 224 0.4 2.4 3 0.000 12.6 -59 0.00 0.00 49.9 54.6 0.000
8/27/26 - 0600 52.3 81 46.8 50.0 SSW | 199 0.5 3.0 0 0.000 12.6 -63 0.00 0.00 51.7 54.6 0.000
8/27/26 - 0500 52.1 84 47.3 50.2 SW | 228 0.2 1.7 0 0.000 12.7 -65 0.00 0.00 51.7 54.6 0.000
8/27/26 - 0400 52.8 84 48.1 51.0 NW | 321 0.2 1.8 0 0.000 12.7 -63 0.00 0.00 51.7 54.6 0.000
8/27/26 - 0300 53.7 82 48.2 51.4 SSW | 213 0.4 2.7 0 0.000 12.6 -63 0.00 0.00 53.2 54.6 0.000
8/27/26 - 0200 54.1 81 48.5 51.8 S | 182 0.4 3.5 0 0.000 12.8 -63 0.00 0.00 53.6 54.6 0.000
8/27/26 - 0100 56.2 78 49.6 53.3 SE | 138 0.2 2.0 0 0.000 12.7 -63 0.00 0.00 44.2 93.7 0.197
8/27/26 - 0000 59.9 73 51.4 55.8 SSW | 207 0.2 2.5 0 0.000 12.8 -63 0.00 0.00 44.2 93.7 0.197
8/26/26 - 2300 65.3 63 52.2 58.1 NNW | 331 1.0 5.0 0 0.000 12.8 -63 0.00 0.00 44.2 93.7 0.197
8/26/26 - 2200 69.5 53 51.5 58.9 WNW | 290 3.3 12.7 0 0.001 12.8 -63 0.00 0.00 44.2 93.7 0.197
8/26/26 - 2100 71.5 49 51.2 59.3 W | 278 4.3 12.0 0 0.001 12.9 -61 0.00 0.00 44.2 93.7 0.196
8/26/26 - 2000 75.4 41 50.2 59.7 WNW | 285 6.2 13.2 33 0.003 12.9 -63 0.00 0.00 44.2 93.7 0.195
8/26/26 - 1900 81.8 27 44.6 58.5 WNW | 300 6.4 15.0 175 0.009 13.4 -63 0.00 0.00 44.2 93.7 0.192
8/26/26 - 1800 86.0 22 42.8 58.6 WNW | 298 5.8 12.6 368 0.014 13.4 -65 0.00 0.00 44.2 93.7 0.183
8/26/26 - 1700 89.1 19 41.2 58.6 WNW | 292 5.7 13.2 533 0.020 13.4 -63 0.00 0.00 44.2 93.7 0.168
8/26/26 - 1600 92.0 17 41.6 59.3 NW | 306 3.8 11.8 665 0.022 13.4 -63 0.00 0.00 44.2 93.7 0.149
8/26/26 - 1500 91.7 18 41.6 59.3 E | 87 2.4 6.5 758 0.024 13.4 -61 0.00 0.00 44.2 93.7 0.126
8/26/26 - 1400 89.8 22 45.5 60.4 ENE | 76 2.0 5.7 800 0.024 13.4 -61 0.00 0.00 44.2 91.7 0.103
8/26/26 - 1300 87.1 23 44.8 59.7 ENE | 75 1.9 6.8 794 0.024 13.4 -63 0.00 0.00 44.2 87.9 0.078
8/26/26 - 1200 84.1 25 44.8 59.0 ESE | 110 1.4 4.6 732 0.021 13.4 -61 0.00 0.00 44.2 85.4 0.055
8/26/26 - 1100 78.3 29 42.9 56.9 ENE | 66 1.0 3.5 613 0.016 13.5 -63 0.00 0.00 44.2 80.6 0.034
8/26/26 - 1000 72.0 39 45.6 56.4 NE | 42 1.0 3.5 464 0.011 13.6 -61 0.00 0.00 44.2 75.4 0.018
8/26/26 - 0900 59.8 52 41.9 50.6 NNW | 347 0.4 2.7 259 0.005 13.8 -63 0.00 0.00 44.2 67.8 0.006
8/26/26 - 0800 50.5 56 35.5 43.6 S | 178 2.4 4.9 39 0.002 13.6 -63 0.00 0.00 44.2 54.8 0.002
8/26/26 - 0700 44.6 69 35.0 40.5 S | 191 0.4 2.2 6 0.000 12.7 -63 0.00 0.00 44.2 53.9 0.000
8/26/26 - 0600 46.9 64 35.2 41.8 S | 190 1.0 3.6 0 0.000 12.6 -63 0.00 0.00 44.7 53.9 0.000
8/26/26 - 0500 48.8 59 35.1 42.7 S | 180 1.0 3.6 0 0.000 12.7 -63 0.00 0.00 47.5 53.9 0.000
8/26/26 - 0400 49.6 58 35.5 43.2 S | 176 0.8 3.1 0 0.000 12.7 -91 0.00 0.00 48.8 53.9 0.000
8/26/26 - 0300 50.5 59 36.7 44.2 S | 181 1.0 2.7 0 0.000 12.7 -51 0.00 0.00 50.2 53.9 0.000
8/26/26 - 0200 52.6 57 37.6 45.6 SSW | 194 0.6 2.7 0 0.000 12.8 -63 0.00 0.00 50.8 53.9 0.000
8/26/26 - 0100 55.3 54 38.8 47.3 SSW | 204 0.9 3.1 0 0.000 12.8 -63 0.00 0.00 47.8 91.2 0.182
8/26/26 - 0000 57.8 53 40.7 49.2 SSW | 192 0.6 2.8 0 0.000 12.8 -61 0.00 0.00 47.8 91.2 0.182
8/25/26 - 2300 64.1 42 40.1 51.4 WSW | 250 1.1 4.3 0 0.000 12.8 -61 0.00 0.00 47.8 91.2 0.182
8/25/26 - 2200 68.6 34 39.4 52.6 WNW | 302 2.2 5.7 0 0.000 12.8 -63 0.00 0.00 47.8 91.2 0.182
8/25/26 - 2100 73.1 35 44.0 56.0 WNW | 291 3.1 7.7 0 0.001 12.9 -61 0.00 0.00 47.8 91.2 0.182
8/25/26 - 2000 79.7 33 47.8 59.4 W | 279 3.4 8.3 48 0.002 12.9 -61 0.00 0.00 47.8 91.2 0.181
8/25/26 - 1900 85.0 28 48.2 60.7 SW | 224 5.1 11.5 196 0.008 13.4 -63 0.00 0.00 47.8 91.2 0.179
8/25/26 - 1800 88.6 20 42.5 59.0 SW | 229 4.9 11.6 383 0.014 13.4 -63 0.00 0.00 47.8 91.2 0.171
8/25/26 - 1700 90.5 16 38.3 57.9 SSW | 207 3.3 10.3 496 0.017 13.3 -63 0.00 0.00 47.8 91.2 0.157
8/25/26 - 1600 90.3 16 37.1 57.5 SW | 228 3.7 10.6 660 0.022 13.3 -65 0.00 0.00 47.8 91.0 0.140
8/25/26 - 1500 89.2 14 33.2 56.1 WSW | 245 4.2 10.7 761 0.025 13.4 -63 0.00 0.00 47.8 89.9 0.118
Max 92.6 88 53.5 62.4 - 8.0 16.0 800 0.026 13.8 -51 0.00 0.00 57.4 93.7 0.197
Avg 66.9 47 42.5 52.9 - 2.3 6.6 229 0.007 13.1 -62.6429 0.00 - - - -
Min 42.9 14 27.7 38.7 - 0.0 0.0 0 0.000 12.6 -91 0.00 0.00 41.6 49.3 0.000
Total - - - - - - - - 1.202 - - 0.00 - - - -